createdAt,value
2024-04-22T00:00:57.899Z,2.61
2024-04-22T00:03:27.701Z,2.66
2024-04-22T00:05:57.950Z,2.87
2024-04-22T00:08:25.169Z,2.63
2024-04-22T00:11:04.898Z,2.56
2024-04-22T00:13:33.668Z,2.62
2024-04-22T00:16:03.833Z,2.56
2024-04-22T00:18:33.771Z,2.55
2024-04-22T00:21:03.536Z,2.65
2024-04-22T00:23:30.736Z,2.56
2024-04-22T00:26:02.092Z,2.62
2024-04-22T00:28:29.343Z,2.53
2024-04-22T00:30:59.081Z,2.57
2024-04-22T00:33:26.295Z,2.84
2024-04-22T00:36:02.442Z,2.61
2024-04-22T00:38:30.834Z,2.61
2024-04-22T00:41:01.142Z,2.52
2024-04-22T00:43:28.389Z,2.72
2024-04-22T00:45:59.168Z,2.55
2024-04-22T00:48:26.719Z,2.76
2024-04-22T00:50:58.292Z,2.77
2024-04-22T00:53:28.606Z,2.80
2024-04-22T00:56:01.968Z,2.65
2024-04-22T00:58:30.656Z,2.70
2024-04-22T01:01:00.903Z,2.89
2024-04-22T01:03:28.824Z,2.96
2024-04-22T01:05:59.155Z,2.76
2024-04-22T01:08:28.949Z,2.88
2024-04-22T01:10:59.062Z,2.95
2024-04-22T01:13:26.340Z,2.96
2024-04-22T01:15:56.152Z,2.89
2024-04-22T01:18:23.285Z,2.84
2024-04-22T01:20:53.118Z,2.87
2024-04-22T01:23:22.910Z,2.90
2024-04-22T01:25:56.920Z,2.90
2024-04-22T01:28:24.190Z,2.69
2024-04-22T01:30:53.989Z,2.83
2024-04-22T01:33:21.284Z,2.89
2024-04-22T01:35:51.170Z,3.05
2024-04-22T01:38:18.332Z,2.85
2024-04-22T01:40:50.821Z,2.73
2024-04-22T01:43:18.058Z,2.60
2024-04-22T01:45:47.857Z,2.78
2024-04-22T01:48:15.057Z,2.87
2024-04-22T01:50:49.250Z,2.89
2024-04-22T01:53:16.407Z,2.82
2024-04-22T01:56:10.089Z,2.86
2024-04-22T01:58:37.370Z,2.82
2024-04-22T02:01:08.032Z,2.80
2024-04-22T02:03:35.247Z,2.86
2024-04-22T02:06:05.073Z,2.94
2024-04-22T02:08:32.201Z,3.02
2024-04-22T02:11:04.850Z,2.96
2024-04-22T02:13:32.136Z,2.88
2024-04-22T02:16:02.082Z,2.68
2024-04-22T02:18:29.754Z,2.72
2024-04-22T02:20:59.505Z,2.81
2024-04-22T02:23:26.633Z,2.66
2024-04-22T02:25:56.386Z,2.67
2024-04-22T02:28:26.184Z,2.74
2024-04-22T02:30:56.289Z,2.71
2024-04-22T02:33:23.912Z,2.70
2024-04-22T02:35:53.802Z,2.66
2024-04-22T02:38:21.041Z,2.59
2024-04-22T02:40:51.436Z,2.61
2024-04-22T02:43:18.612Z,2.78
2024-04-22T02:45:50.987Z,2.81
2024-04-22T02:48:18.233Z,2.60
2024-04-22T02:50:48.078Z,2.80
2024-04-22T02:53:15.350Z,2.69
2024-04-22T02:56:07.075Z,2.60
2024-04-22T02:58:34.267Z,2.63
2024-04-22T03:01:09.160Z,2.57
2024-04-22T03:03:36.402Z,2.56
2024-04-22T03:06:06.401Z,2.56
2024-04-22T03:08:33.575Z,2.62
2024-04-22T03:11:03.914Z,2.66
2024-04-22T03:13:31.207Z,2.65
2024-04-22T03:16:01.038Z,2.58
2024-04-22T03:18:30.802Z,2.65
2024-04-22T03:21:00.567Z,2.64
2024-04-22T03:23:29.198Z,2.65
2024-04-22T03:25:58.981Z,2.67
2024-04-22T03:28:26.117Z,2.79
2024-04-22T03:30:55.942Z,2.64
2024-04-22T03:33:23.192Z,2.67
2024-04-22T03:35:55.610Z,2.78
2024-04-22T03:38:25.338Z,2.75
2024-04-22T03:40:55.128Z,2.75
2024-04-22T03:43:25.004Z,2.76
2024-04-22T03:46:07.043Z,2.80
2024-04-22T03:48:52.477Z,2.75
2024-04-22T03:51:24.869Z,2.83
2024-04-22T03:53:54.661Z,2.96
2024-04-22T03:56:24.501Z,2.91
2024-04-22T03:58:54.260Z,2.76
2024-04-22T04:01:22.729Z,2.86
2024-04-22T04:03:52.605Z,2.89
2024-04-22T04:06:25.126Z,2.83
2024-04-22T04:08:52.292Z,2.72
2024-04-22T04:11:27.365Z,2.81
2024-04-22T04:13:54.791Z,2.86
2024-04-22T04:16:25.405Z,2.71
2024-04-22T04:18:52.658Z,2.89
2024-04-22T04:21:25.123Z,2.87
2024-04-22T04:23:52.235Z,2.85
2024-04-22T04:26:22.085Z,2.79
2024-04-22T04:28:49.501Z,2.88
2024-04-22T04:31:20.328Z,2.87
2024-04-22T04:33:47.486Z,2.89
2024-04-22T04:36:17.292Z,2.76
2024-04-22T04:38:47.047Z,2.73
2024-04-22T04:41:17.071Z,2.78
2024-04-22T04:43:44.302Z,2.75
2024-04-22T04:46:14.122Z,2.67
2024-04-22T04:48:41.399Z,2.67
2024-04-22T04:51:11.178Z,2.70
2024-04-22T04:53:38.300Z,2.67
2024-04-22T04:56:11.032Z,2.75
2024-04-22T04:58:38.272Z,2.50
2024-04-22T05:01:08.430Z,2.62
2024-04-22T05:03:35.683Z,2.70
2024-04-22T05:06:06.343Z,2.70
2024-04-22T05:08:33.512Z,2.69
2024-04-22T05:11:07.264Z,2.72
2024-04-22T05:13:37.077Z,2.67
2024-04-22T05:16:07.275Z,2.74
2024-04-22T05:18:34.572Z,2.68
2024-04-22T05:21:04.384Z,2.83
2024-04-22T05:23:31.578Z,2.79
2024-04-22T05:26:01.426Z,2.76
2024-04-22T05:28:28.834Z,2.80
2024-04-22T05:31:01.311Z,2.93
2024-04-22T05:33:46.903Z,2.86
2024-04-22T05:36:16.716Z,2.98
2024-04-22T05:38:47.871Z,2.86
2024-04-22T05:41:15.165Z,2.99
2024-04-22T05:43:45.032Z,2.88
2024-04-22T05:46:17.530Z,3.09
2024-04-22T05:48:47.301Z,3.05
2024-04-22T05:51:17.075Z,3.02
2024-04-22T05:53:44.550Z,3.02
2024-04-22T05:56:14.448Z,3.01
2024-04-22T05:58:42.154Z,3.06
2024-04-22T06:01:12.150Z,3.03
2024-04-22T06:03:41.970Z,2.97
2024-04-22T06:06:11.790Z,3.02
2024-04-22T06:08:38.926Z,3.15
2024-04-22T06:11:09.072Z,3.32
2024-04-22T06:13:36.302Z,3.11
2024-04-22T06:16:06.404Z,3.27
2024-04-22T06:18:33.564Z,3.15
2024-04-22T06:21:06.129Z,2.98
2024-04-22T06:23:33.827Z,2.96
2024-04-22T06:26:06.893Z,3.38
2024-04-22T06:28:34.265Z,3.35
2024-04-22T06:31:04.132Z,3.21
2024-04-22T06:33:31.654Z,3.19
2024-04-22T06:36:01.437Z,3.22
2024-04-22T06:38:32.291Z,3.32
2024-04-22T06:41:02.126Z,3.54
2024-04-22T06:43:29.334Z,3.68
2024-04-22T06:45:59.118Z,3.58
2024-04-22T06:48:26.310Z,3.47
2024-04-22T06:50:59.980Z,3.46
2024-04-22T06:53:28.651Z,3.56
2024-04-22T06:56:06.962Z,3.65
2024-04-22T06:58:34.180Z,3.69
2024-04-22T07:01:04.024Z,3.83
2024-04-22T07:03:31.242Z,3.80
2024-04-22T07:06:01.424Z,3.90
2024-04-22T07:08:28.544Z,4.14
2024-04-22T07:11:01.012Z,3.96
2024-04-22T07:13:28.155Z,4.16
2024-04-22T07:15:57.978Z,4.35
2024-04-22T07:18:25.122Z,4.32
2024-04-22T07:20:54.942Z,4.52
2024-04-22T07:23:22.121Z,4.58
2024-04-22T07:25:51.958Z,4.57
2024-04-22T07:28:22.488Z,4.77
2024-04-22T07:30:52.822Z,4.83
2024-04-22T07:33:20.605Z,5.07
2024-04-22T07:35:52.312Z,4.66
2024-04-22T07:38:24.545Z,4.83
2024-04-22T07:40:55.218Z,4.64
2024-04-22T07:43:25.055Z,4.68
2024-04-22T07:45:54.961Z,4.82
2024-04-22T07:48:22.291Z,4.73
2024-04-22T07:50:52.090Z,4.50
2024-04-22T07:53:19.737Z,4.57
2024-04-22T07:56:05.811Z,4.67
2024-04-22T07:58:36.492Z,5.02
2024-04-22T08:01:06.800Z,5.04
2024-04-22T08:03:34.481Z,5.32
2024-04-22T08:06:08.527Z,5.15
2024-04-22T08:08:39.698Z,5.17
2024-04-22T08:11:09.607Z,5.00
2024-04-22T08:13:39.580Z,5.15
2024-04-22T08:16:09.494Z,5.04
2024-04-22T08:18:36.680Z,5.06
2024-04-22T08:21:08.497Z,5.11
2024-04-22T08:23:37.720Z,5.01
2024-04-22T08:26:07.933Z,5.25
2024-04-22T08:28:35.135Z,5.21
2024-04-22T08:31:09.213Z,5.49
2024-04-22T08:33:36.552Z,5.13
2024-04-22T08:36:08.662Z,5.31
2024-04-22T08:38:37.498Z,5.34
2024-04-22T08:41:11.970Z,5.16
2024-04-22T08:43:39.196Z,5.25
2024-04-22T08:46:11.802Z,5.24
2024-04-22T08:48:39.901Z,5.02
2024-04-22T08:51:10.656Z,5.36
2024-04-22T08:53:37.830Z,5.38
2024-04-22T08:56:09.799Z,5.39
2024-04-22T08:58:37.377Z,5.52
2024-04-22T09:01:11.781Z,5.33
2024-04-22T09:03:39.077Z,5.22
2024-04-22T09:06:09.153Z,5.30
2024-04-22T09:08:43.163Z,5.33
2024-04-22T09:13:48.533Z,5.20
2024-04-22T09:16:21.495Z,5.24
2024-04-22T09:18:49.026Z,5.34
2024-04-22T09:21:20.877Z,5.58
2024-04-22T09:23:48.171Z,5.62
2024-04-22T09:26:18.324Z,5.31
2024-04-22T09:28:49.015Z,5.22
2024-04-22T09:31:22.796Z,5.44
2024-04-22T09:33:50.518Z,5.36
2024-04-22T09:36:21.374Z,5.57
2024-04-22T09:38:51.183Z,5.49
2024-04-22T09:41:23.247Z,5.70
2024-04-22T09:43:57.099Z,5.54
2024-04-22T09:46:34.705Z,5.49
2024-04-22T09:49:01.918Z,5.63
2024-04-22T09:51:32.922Z,5.39
2024-04-22T09:54:00.249Z,5.52
2024-04-22T09:56:34.492Z,5.32
2024-04-22T09:59:04.363Z,5.17
2024-04-22T10:01:37.163Z,5.20
2024-04-22T10:04:04.694Z,5.15
2024-04-22T10:06:35.963Z,4.98
2024-04-22T10:09:03.201Z,4.98
2024-04-22T10:11:34.786Z,4.99
2024-04-22T10:14:13.516Z,4.90
2024-04-22T10:16:57.143Z,4.89
2024-04-22T10:19:27.407Z,4.88
2024-04-22T10:21:59.875Z,4.93
2024-04-22T10:24:34.285Z,4.91
2024-04-22T10:27:09.800Z,4.95
2024-04-22T10:29:41.972Z,5.21
2024-04-22T10:32:11.833Z,5.26
2024-04-22T10:34:46.057Z,5.38
2024-04-22T10:37:13.860Z,5.42
2024-04-22T10:39:44.975Z,5.27
2024-04-22T10:42:12.841Z,5.48
2024-04-22T10:44:43.544Z,6.06
2024-04-22T10:47:13.739Z,6.05
2024-04-22T10:49:45.209Z,6.32
2024-04-22T10:52:12.467Z,6.27
2024-04-22T10:54:42.286Z,6.04
2024-04-22T10:57:09.733Z,6.56
2024-04-22T10:59:40.029Z,6.50
2024-04-22T11:02:08.759Z,6.41
2024-04-22T11:04:42.194Z,6.60
2024-04-22T11:07:09.468Z,6.68
2024-04-22T11:09:39.810Z,6.58
2024-04-22T11:12:08.392Z,6.47
2024-04-22T11:14:38.352Z,6.68
2024-04-22T11:17:05.841Z,6.79
2024-04-22T11:19:35.621Z,6.51
2024-04-22T11:22:07.079Z,6.80
2024-04-22T11:24:37.076Z,6.98
2024-04-22T11:27:04.886Z,7.17
2024-04-22T11:29:34.763Z,7.52
2024-04-22T11:32:02.573Z,7.34
2024-04-22T11:34:33.506Z,7.25
2024-04-22T11:37:02.774Z,7.07
2024-04-22T11:39:36.544Z,6.83
2024-04-22T11:42:03.760Z,6.62
2024-04-22T11:44:33.531Z,6.94
2024-04-22T11:47:00.878Z,7.18
2024-04-22T11:49:30.757Z,7.18
2024-04-22T11:51:57.977Z,6.95
2024-04-22T11:54:27.822Z,7.11
2024-04-22T11:56:57.590Z,6.87
2024-04-22T11:59:27.460Z,6.97
2024-04-22T12:01:54.750Z,6.92
2024-04-22T12:04:24.665Z,7.05
2024-04-22T12:06:51.895Z,7.05
2024-04-22T12:09:24.336Z,6.85
2024-04-22T12:11:51.576Z,7.12
2024-04-22T12:14:24.008Z,6.69
2024-04-22T12:16:51.546Z,7.11
2024-04-22T12:19:21.506Z,6.96
2024-04-22T12:21:48.740Z,6.44
2024-04-22T12:24:18.547Z,6.72
2024-04-22T12:26:45.723Z,6.85
2024-04-22T12:29:15.529Z,6.91
2024-04-22T12:31:45.394Z,6.59
2024-04-22T12:34:15.297Z,6.92
2024-04-22T12:36:42.881Z,6.88
2024-04-22T12:39:12.843Z,6.97
2024-04-22T12:41:40.132Z,7.08
2024-04-22T12:44:09.946Z,6.98
2024-04-22T12:46:57.825Z,6.93
2024-04-22T12:49:46.111Z,7.21
2024-04-22T12:52:18.808Z,7.10
2024-04-22T12:54:45.998Z,7.02
2024-04-22T12:57:15.943Z,6.92
2024-04-22T12:59:45.871Z,7.21
2024-04-22T13:02:16.603Z,7.06
2024-04-22T13:04:49.099Z,7.27
2024-04-22T13:07:18.978Z,7.25
2024-04-22T13:09:48.802Z,7.32
2024-04-22T13:12:16.011Z,7.25
2024-04-22T13:14:45.835Z,6.99
2024-04-22T13:17:15.679Z,6.83
2024-04-22T13:19:48.245Z,7.01
2024-04-22T13:22:15.473Z,7.09
2024-04-22T13:24:45.279Z,7.22
2024-04-22T13:27:12.459Z,7.15
2024-04-22T13:29:43.461Z,7.24
2024-04-22T13:32:16.279Z,7.34
2024-04-22T13:34:46.158Z,7.28
2024-04-22T13:37:16.013Z,7.31
2024-04-22T13:39:44.424Z,7.54
2024-04-22T13:42:14.211Z,7.17
2024-04-22T13:44:41.335Z,7.52
2024-04-22T13:47:11.124Z,7.53
2024-04-22T13:49:38.315Z,7.14
2024-04-22T13:52:10.999Z,7.24
2024-04-22T13:54:38.138Z,7.32
2024-04-22T13:57:08.288Z,7.26
2024-04-22T13:59:35.432Z,7.58
2024-04-22T14:02:05.420Z,7.48
2024-04-22T14:04:32.699Z,7.51
2024-04-22T14:07:05.709Z,7.59
2024-04-22T14:09:36.304Z,7.60
2024-04-22T14:12:06.291Z,7.47
2024-04-22T14:14:33.523Z,7.64
2024-04-22T14:17:05.453Z,7.90
2024-04-22T14:19:34.839Z,8.05
2024-04-22T14:22:04.607Z,8.09
2024-04-22T14:24:31.825Z,7.89
2024-04-22T14:27:04.359Z,8.00
2024-04-22T14:29:31.527Z,7.99
2024-04-22T14:32:01.287Z,8.10
2024-04-22T14:34:28.471Z,8.12
2024-04-22T14:36:58.240Z,8.34
2024-04-22T14:39:25.395Z,8.31
2024-04-22T14:41:55.125Z,8.54
2024-04-22T14:44:24.905Z,8.30
2024-04-22T14:46:54.716Z,8.36
2024-04-22T14:49:21.868Z,8.27
2024-04-22T14:51:51.643Z,8.56
2024-04-22T14:54:18.757Z,8.55
2024-04-22T14:56:48.565Z,8.58
2024-04-22T14:59:15.784Z,8.33
2024-04-22T15:01:48.247Z,8.54
2024-04-22T15:04:15.439Z,8.57
2024-04-22T15:06:46.336Z,8.48
2024-04-22T15:09:13.491Z,8.26
2024-04-22T15:11:43.316Z,8.01
2024-04-22T15:14:10.463Z,7.78
2024-04-22T15:16:40.262Z,7.83
2024-04-22T15:19:10.094Z,8.20
2024-04-22T15:21:39.954Z,8.37
2024-04-22T15:24:10.133Z,8.62
2024-04-22T15:26:39.917Z,8.68
2024-04-22T15:29:07.192Z,8.98
2024-04-22T15:31:37.028Z,9.23
2024-04-22T15:34:04.215Z,9.35
2024-04-22T15:36:36.674Z,9.28
2024-04-22T15:39:04.063Z,9.12
2024-04-22T15:41:34.231Z,9.03
2024-04-22T15:44:03.495Z,8.84
2024-04-22T15:46:33.342Z,9.12
2024-04-22T15:49:00.580Z,8.79
2024-04-22T15:51:30.360Z,8.48
2024-04-22T15:54:00.192Z,8.37
2024-04-22T15:56:29.982Z,8.24
2024-04-22T15:58:57.292Z,8.45
2024-04-22T16:01:27.739Z,8.54
2024-04-22T16:03:54.912Z,8.64
2024-04-22T16:06:24.707Z,8.39
2024-04-22T16:08:51.840Z,8.52
2024-04-22T16:11:24.254Z,8.53
2024-04-22T16:13:51.388Z,7.92
2024-04-22T16:16:21.352Z,8.14
2024-04-22T16:18:50.511Z,8.06
2024-04-22T16:21:20.349Z,8.13
2024-04-22T16:23:47.482Z,8.15
2024-04-22T16:26:19.217Z,8.12
2024-04-22T16:28:50.606Z,7.96
2024-04-22T16:31:21.717Z,7.99
2024-04-22T16:33:48.929Z,7.85
2024-04-22T16:36:18.711Z,7.72
2024-04-22T16:38:45.994Z,7.79
2024-04-22T16:41:15.776Z,7.75
2024-04-22T16:43:43.057Z,7.81
2024-04-22T16:46:15.457Z,7.75
2024-04-22T16:48:42.824Z,7.45
2024-04-22T16:51:12.742Z,7.51
2024-04-22T16:53:39.916Z,7.52
2024-04-22T16:56:09.997Z,7.45
2024-04-22T16:58:37.197Z,7.27
2024-04-22T17:01:07.490Z,7.37
2024-04-22T17:03:37.454Z,7.23
2024-04-22T17:06:07.334Z,7.16
2024-04-22T17:08:34.544Z,7.31
2024-04-22T17:11:07.668Z,7.38
2024-04-22T17:13:34.941Z,7.29
2024-04-22T17:16:04.865Z,7.20
2024-04-22T17:18:32.084Z,7.11
2024-04-22T17:21:04.593Z,7.28
2024-04-22T17:23:33.120Z,7.00
2024-04-22T17:26:03.065Z,7.04
2024-04-22T17:28:31.693Z,7.14
2024-04-22T17:31:01.479Z,7.05
2024-04-22T17:33:28.789Z,6.87
2024-04-22T17:35:58.675Z,6.94
2024-04-22T17:38:29.243Z,7.02
2024-04-22T17:41:00.285Z,6.97
2024-04-22T17:43:27.531Z,6.86
2024-04-22T17:46:04.581Z,6.95
2024-04-22T17:48:31.891Z,6.88
2024-04-22T17:51:02.294Z,6.80
2024-04-22T17:53:32.836Z,6.94
2024-04-22T17:56:02.793Z,6.86
2024-04-22T17:58:30.051Z,6.62
2024-04-22T18:00:59.907Z,6.72
2024-04-22T18:03:27.072Z,6.85
2024-04-22T18:05:56.899Z,6.73
2024-04-22T18:08:24.062Z,6.65
2024-04-22T18:10:57.722Z,6.73
2024-04-22T18:13:28.951Z,6.51
2024-04-22T18:15:59.233Z,6.55
2024-04-22T18:18:26.411Z,6.46
2024-04-22T18:20:56.296Z,6.49
2024-04-22T18:23:23.677Z,6.43
2024-04-22T18:26:02.182Z,6.33
2024-04-22T18:28:33.390Z,6.30
2024-04-22T18:31:03.183Z,6.11
2024-04-22T18:33:30.350Z,6.03
2024-04-22T18:36:00.994Z,6.05
2024-04-22T18:38:29.296Z,5.91
2024-04-22T18:41:01.847Z,5.91
2024-04-22T18:43:29.211Z,5.78
2024-04-22T18:45:59.016Z,5.77
2024-04-22T18:48:26.251Z,5.66
2024-04-22T18:50:58.836Z,5.53
2024-04-22T18:53:26.108Z,5.51
2024-04-22T18:56:03.967Z,5.47
2024-04-22T18:58:32.539Z,5.59
2024-04-22T19:01:02.513Z,5.55
2024-04-22T19:03:29.833Z,5.58
2024-04-22T19:05:59.681Z,5.32
2024-04-22T19:08:26.861Z,5.49
2024-04-22T19:10:57.043Z,5.41
2024-04-22T19:13:27.010Z,5.41
2024-04-22T19:15:56.798Z,5.47
2024-04-22T19:18:25.159Z,5.40
2024-04-22T19:20:55.062Z,5.35
2024-04-22T19:23:22.298Z,5.40
2024-04-22T19:25:52.154Z,5.25
2024-04-22T19:28:19.470Z,5.29
2024-04-22T19:30:54.045Z,5.31
2024-04-22T19:33:21.272Z,5.24
2024-04-22T19:35:53.985Z,5.25
2024-04-22T19:38:21.152Z,5.24
2024-04-22T19:40:51.064Z,5.19
2024-04-22T19:43:18.809Z,5.25
2024-04-22T19:45:51.298Z,5.26
2024-04-22T19:48:18.526Z,5.33
2024-04-22T19:50:48.761Z,5.22
2024-04-22T19:53:16.018Z,4.84
2024-04-22T19:56:07.657Z,4.90
2024-04-22T19:58:35.568Z,5.03
2024-04-22T20:01:08.310Z,5.19
2024-04-22T20:03:35.807Z,5.14
2024-04-22T20:06:05.815Z,5.15
2024-04-22T20:08:33.274Z,5.11
2024-04-22T20:11:07.336Z,5.19
2024-04-22T20:13:34.603Z,5.12
2024-04-22T20:16:16.117Z,5.17
2024-04-22T20:18:54.572Z,5.23
2024-04-22T20:21:24.475Z,5.26
2024-04-22T20:23:51.963Z,5.28
2024-04-22T20:26:21.718Z,5.16
2024-04-22T20:28:51.723Z,5.13
2024-04-22T20:31:24.394Z,5.09
2024-04-22T20:33:51.880Z,5.10
2024-04-22T20:36:23.704Z,5.03
2024-04-22T20:38:50.843Z,5.05
2024-04-22T20:41:20.663Z,4.89
2024-04-22T20:43:47.837Z,4.81
2024-04-22T20:46:17.665Z,4.76
2024-04-22T20:48:47.410Z,4.89
2024-04-22T20:51:17.314Z,4.75
2024-04-22T20:53:44.465Z,4.68
2024-04-22T20:56:14.301Z,4.68
2024-04-22T20:58:41.600Z,4.65
2024-04-22T21:01:12.466Z,4.66
2024-04-22T21:03:39.888Z,4.48
2024-04-22T21:06:12.355Z,4.39
2024-04-22T21:08:39.522Z,4.48
2024-04-22T21:11:09.487Z,4.55
2024-04-22T21:13:43.100Z,4.62
2024-04-22T21:16:13.349Z,4.60
2024-04-22T21:18:40.736Z,4.52
2024-04-22T21:21:13.226Z,4.51
2024-04-22T21:23:40.469Z,4.47
2024-04-22T21:26:10.278Z,4.43
2024-04-22T21:28:37.736Z,4.46
2024-04-22T21:31:09.329Z,4.35
2024-04-22T21:33:50.777Z,4.33
2024-04-22T21:36:28.901Z,4.45
2024-04-22T21:38:56.040Z,4.38
2024-04-22T21:41:27.038Z,4.27
2024-04-22T21:43:54.342Z,4.24
2024-04-22T21:46:24.266Z,4.15
2024-04-22T21:48:51.507Z,4.20
2024-04-22T21:51:21.408Z,4.28
2024-04-22T21:53:51.314Z,4.39
2024-04-22T21:56:21.172Z,4.37
2024-04-22T21:59:28.395Z,4.32
2024-04-22T22:02:32.855Z,4.39
2024-04-22T22:05:40.086Z,4.38
2024-04-22T22:08:10.307Z,4.30
2024-04-22T22:10:44.430Z,4.24
2024-04-22T22:13:11.409Z,4.16
2024-04-22T22:15:41.399Z,4.03
2024-04-22T22:18:09.254Z,4.19
2024-04-22T22:20:39.400Z,3.93
2024-04-22T22:23:06.630Z,4.14
2024-04-22T22:25:36.468Z,4.13
2024-04-22T22:28:07.062Z,4.19
2024-04-22T22:30:36.884Z,4.12
2024-04-22T22:33:04.200Z,4.16
2024-04-22T22:35:33.992Z,4.14
2024-04-22T22:38:01.175Z,3.98
2024-04-22T22:40:30.966Z,4.13
2024-04-22T22:42:58.175Z,4.06
2024-04-22T22:45:31.311Z,3.76
2024-04-22T22:47:58.704Z,3.85
2024-04-22T22:50:28.579Z,3.78
2024-04-22T22:52:55.792Z,3.87
2024-04-22T22:55:25.655Z,3.81
2024-04-22T22:57:52.823Z,3.85
2024-04-22T23:00:22.630Z,3.79
2024-04-22T23:02:52.595Z,3.76
2024-04-22T23:05:22.401Z,3.46
2024-04-22T23:07:49.681Z,3.74
2024-04-22T23:10:19.483Z,3.70
2024-04-22T23:12:46.655Z,3.63
2024-04-22T23:15:16.616Z,3.43
2024-04-22T23:17:43.748Z,3.58
2024-04-22T23:20:16.253Z,3.57
2024-04-22T23:22:43.591Z,3.42
2024-04-22T23:25:13.491Z,3.45
2024-04-22T23:27:41.873Z,3.56
2024-04-22T23:30:12.320Z,3.30
2024-04-22T23:32:39.498Z,3.31
2024-04-22T23:35:09.894Z,3.23
2024-04-22T23:37:39.823Z,3.29
2024-04-22T23:40:10.676Z,3.24
2024-04-22T23:42:37.800Z,3.31
2024-04-22T23:45:08.270Z,3.13
2024-04-22T23:47:54.490Z,3.31
2024-04-22T23:50:24.419Z,3.07
2024-04-22T23:52:54.525Z,3.02
2024-04-22T23:55:24.332Z,3.05
2024-04-22T23:57:51.512Z,3.05
